createdAt,value
2023-05-21T00:01:50.082Z,17.52
2023-05-21T00:04:18.444Z,18.73
2023-05-21T00:06:46.865Z,19.27
2023-05-21T00:09:15.145Z,18.73
2023-05-21T00:11:43.488Z,18.75
2023-05-21T00:14:11.682Z,18.25
2023-05-21T00:16:39.994Z,19.42
2023-05-21T00:19:10.294Z,17.65
2023-05-21T00:21:39.547Z,18.38
2023-05-21T00:24:08.282Z,18.30
2023-05-21T00:26:36.566Z,18.40
2023-05-21T00:29:05.547Z,18.25
2023-05-21T00:31:33.933Z,18.27
2023-05-21T00:34:02.249Z,18.38
2023-05-21T00:36:31.353Z,18.58
2023-05-21T00:38:59.633Z,17.33
2023-05-21T00:41:30.303Z,19.17
2023-05-21T00:44:00.427Z,17.83
2023-05-21T00:46:28.770Z,18.45
2023-05-21T00:48:58.442Z,17.48
2023-05-21T00:51:30.346Z,18.40
2023-05-21T00:53:59.076Z,18.73
2023-05-21T00:56:28.349Z,18.30
2023-05-21T00:58:57.551Z,16.92
2023-05-21T01:01:26.154Z,18.40
2023-05-21T01:03:58.029Z,17.20
2023-05-21T01:06:26.688Z,18.02
2023-05-21T01:08:58.656Z,17.75
2023-05-21T01:11:43.873Z,18.35
2023-05-21T01:14:15.121Z,17.52
2023-05-21T01:16:48.636Z,17.10
2023-05-21T01:19:21.848Z,17.70
2023-05-21T01:21:57.583Z,17.60
2023-05-21T01:24:26.183Z,16.63
2023-05-21T01:26:54.426Z,17.73
2023-05-21T01:29:22.974Z,16.25
2023-05-21T01:32:33.827Z,16.05
2023-05-21T01:35:21.831Z,17.25
2023-05-21T01:37:59.482Z,17.15
2023-05-21T01:40:45.878Z,16.45
2023-05-21T01:43:15.489Z,17.65
2023-05-21T01:45:45.925Z,16.67
2023-05-21T01:48:15.040Z,15.77
2023-05-21T01:50:47.571Z,17.15
2023-05-21T01:53:17.347Z,17.30
2023-05-21T01:55:46.118Z,17.35
2023-05-21T01:58:17.033Z,16.63
2023-05-21T02:00:45.622Z,16.92
2023-05-21T02:03:17.678Z,17.05
2023-05-21T02:05:47.084Z,16.27
2023-05-21T02:08:15.513Z,17.00
2023-05-21T02:10:43.836Z,16.27
2023-05-21T02:13:12.210Z,15.95
2023-05-21T02:15:40.462Z,16.88
2023-05-21T02:18:09.609Z,15.38
2023-05-21T02:20:38.357Z,17.00
2023-05-21T02:23:06.674Z,16.25
2023-05-21T02:25:35.717Z,15.32
2023-05-21T02:28:04.418Z,16.00
2023-05-21T02:30:32.777Z,17.45
2023-05-21T02:33:01.238Z,17.20
2023-05-21T02:35:29.632Z,16.02
2023-05-21T02:37:59.575Z,15.52
2023-05-21T02:40:28.007Z,15.40
2023-05-21T02:42:56.357Z,15.73
2023-05-21T02:45:25.804Z,16.63
2023-05-21T02:47:54.449Z,16.48
2023-05-21T02:50:23.457Z,17.38
2023-05-21T02:52:57.221Z,15.40
2023-05-21T02:55:25.944Z,18.10
2023-05-21T02:57:54.188Z,16.23
2023-05-21T03:00:22.423Z,15.68
2023-05-21T03:02:51.326Z,16.25
2023-05-21T03:05:19.853Z,15.65
2023-05-21T03:07:48.184Z,15.10
2023-05-21T03:10:16.911Z,15.82
2023-05-21T03:12:45.687Z,15.65
2023-05-21T03:15:17.101Z,16.52
2023-05-21T03:17:45.515Z,15.00
2023-05-21T03:20:16.591Z,15.02
2023-05-21T03:22:45.810Z,15.57
2023-05-21T03:25:14.790Z,16.25
2023-05-21T03:27:43.033Z,15.40
2023-05-21T03:30:26.455Z,16.00
2023-05-21T03:33:18.504Z,15.65
2023-05-21T03:35:47.521Z,15.40
2023-05-21T03:38:16.467Z,15.40
2023-05-21T03:40:44.777Z,14.70
2023-05-21T03:43:14.343Z,14.32
2023-05-21T03:45:44.558Z,15.23
2023-05-21T03:48:39.407Z,14.77
2023-05-21T03:51:09.625Z,13.85
2023-05-21T03:53:37.975Z,14.50
2023-05-21T03:56:06.956Z,14.82
2023-05-21T03:58:35.781Z,14.40
2023-05-21T04:01:04.832Z,15.25
2023-05-21T04:03:35.963Z,14.43
2023-05-21T04:06:07.172Z,14.82
2023-05-21T04:08:36.727Z,14.13
2023-05-21T04:11:05.106Z,15.02
2023-05-21T04:13:33.382Z,15.60
2023-05-21T04:16:01.802Z,15.38
2023-05-21T04:18:30.553Z,15.00
2023-05-21T04:21:00.841Z,16.25
2023-05-21T04:23:29.264Z,14.98
2023-05-21T04:25:59.040Z,16.33
2023-05-21T04:28:28.951Z,14.73
2023-05-21T04:30:58.001Z,14.15
2023-05-21T04:33:26.480Z,15.77
2023-05-21T04:35:55.514Z,15.25
2023-05-21T04:38:24.498Z,14.90
2023-05-21T04:40:55.784Z,15.70
2023-05-21T04:43:26.874Z,15.85
2023-05-21T04:45:57.870Z,14.45
2023-05-21T04:48:29.700Z,14.95
2023-05-21T04:50:57.937Z,14.93
2023-05-21T04:53:26.390Z,13.70
2023-05-21T04:55:54.873Z,14.68
2023-05-21T04:58:23.372Z,13.98
2023-05-21T05:00:53.829Z,15.25
2023-05-21T05:03:22.307Z,14.45
2023-05-21T05:05:51.725Z,14.48
2023-05-21T05:08:22.141Z,14.30
2023-05-21T05:10:50.568Z,15.02
2023-05-21T05:13:19.124Z,15.15
2023-05-21T05:15:49.658Z,15.48
2023-05-21T05:18:19.260Z,15.18
2023-05-21T05:20:47.825Z,15.32
2023-05-21T05:23:16.253Z,14.52
2023-05-21T05:25:44.557Z,14.32
2023-05-21T05:28:12.865Z,13.70
2023-05-21T05:30:41.578Z,13.95
2023-05-21T05:33:20.516Z,14.75
2023-05-21T05:35:49.082Z,14.07
2023-05-21T05:38:17.621Z,14.40
2023-05-21T05:40:45.991Z,13.43
2023-05-21T05:43:14.313Z,15.40
2023-05-21T05:45:42.862Z,13.55
2023-05-21T05:48:15.165Z,13.98
2023-05-21T05:50:44.054Z,14.40
2023-05-21T05:53:13.421Z,14.68
2023-05-21T05:55:41.926Z,15.05
2023-05-21T05:58:10.189Z,14.88
2023-05-21T06:00:51.138Z,13.00
2023-05-21T06:03:19.645Z,14.90
2023-05-21T06:05:48.230Z,14.00
2023-05-21T06:08:17.048Z,15.50
2023-05-21T06:10:47.436Z,14.27
2023-05-21T06:13:16.578Z,13.98
2023-05-21T06:15:44.809Z,14.65
2023-05-21T06:18:13.194Z,13.50
2023-05-21T06:20:41.580Z,14.73
2023-05-21T06:23:09.971Z,14.23
2023-05-21T06:25:40.650Z,14.13
2023-05-21T06:28:10.114Z,13.88
2023-05-21T06:30:39.412Z,14.43
2023-05-21T06:33:07.777Z,14.38
2023-05-21T06:35:37.666Z,14.38
2023-05-21T06:38:06.607Z,14.48
2023-05-21T06:40:36.409Z,14.68
2023-05-21T06:43:05.481Z,15.43
2023-05-21T06:46:11.774Z,15.05
2023-05-21T06:48:41.936Z,14.75
2023-05-21T06:51:10.275Z,14.73
2023-05-21T06:53:38.933Z,15.85
2023-05-21T06:56:07.573Z,14.93
2023-05-21T06:58:44.224Z,15.05
2023-05-21T07:01:12.708Z,15.63
2023-05-21T07:03:41.293Z,15.77
2023-05-21T07:06:10.253Z,15.45
2023-05-21T07:08:38.662Z,15.07
2023-05-21T07:11:07.015Z,14.18
2023-05-21T07:13:37.027Z,12.23
2023-05-21T07:16:05.756Z,13.00
2023-05-21T07:18:34.016Z,12.68
2023-05-21T07:21:02.626Z,14.27
2023-05-21T07:23:31.344Z,12.35
2023-05-21T07:25:59.702Z,12.25
2023-05-21T07:28:28.125Z,12.10
2023-05-21T07:30:56.561Z,12.43
2023-05-21T07:33:31.970Z,12.30
2023-05-21T07:36:00.364Z,12.98
2023-05-21T07:38:28.640Z,12.65
2023-05-21T07:40:57.676Z,13.00
2023-05-21T07:43:26.125Z,11.43
2023-05-21T07:45:54.470Z,12.07
2023-05-21T07:48:23.044Z,11.88
2023-05-21T07:50:56.685Z,11.82
2023-05-21T07:53:24.964Z,11.82
2023-05-21T07:55:53.690Z,11.48
2023-05-21T07:58:26.832Z,10.55
2023-05-21T08:00:55.363Z,10.38
2023-05-21T08:03:23.941Z,10.30
2023-05-21T08:05:52.317Z,9.02
2023-05-21T08:08:22.186Z,9.02
2023-05-21T08:10:52.863Z,10.15
2023-05-21T08:13:26.362Z,8.98
2023-05-21T08:15:55.113Z,9.40
2023-05-21T08:18:24.211Z,8.73
2023-05-21T08:20:55.836Z,9.98
2023-05-21T08:23:27.289Z,8.48
2023-05-21T08:25:57.554Z,9.63
2023-05-21T08:28:27.774Z,9.05
2023-05-21T08:30:56.845Z,8.13
2023-05-21T08:33:26.531Z,8.38
2023-05-21T08:35:54.991Z,8.57
2023-05-21T08:38:30.283Z,8.73
2023-05-21T08:41:33.798Z,9.30
2023-05-21T08:44:03.099Z,8.60
2023-05-21T08:46:34.858Z,8.23
2023-05-21T08:49:03.965Z,8.25
2023-05-21T08:51:32.518Z,9.32
2023-05-21T08:54:02.981Z,8.98
2023-05-21T08:56:33.390Z,8.95
2023-05-21T08:59:03.200Z,8.52
2023-05-21T09:01:38.312Z,8.77
2023-05-21T09:04:25.420Z,8.57
2023-05-21T09:06:58.028Z,8.55
2023-05-21T09:10:12.144Z,8.60
2023-05-21T09:12:41.161Z,8.48
2023-05-21T09:15:10.084Z,8.20
2023-05-21T09:17:40.015Z,7.60
2023-05-21T09:20:28.704Z,9.02
2023-05-21T09:23:05.167Z,9.05
2023-05-21T09:25:37.807Z,9.02
2023-05-21T09:28:16.084Z,8.77
2023-05-21T09:33:26.997Z,8.55
2023-05-21T09:35:57.902Z,8.30
2023-05-21T09:41:14.992Z,8.13
2023-05-21T09:43:45.028Z,8.30
2023-05-21T09:46:14.286Z,7.95
2023-05-21T09:48:43.755Z,7.28
2023-05-21T09:51:19.895Z,7.75
2023-05-21T09:53:58.065Z,8.23
2023-05-21T09:56:29.511Z,7.90
2023-05-21T09:59:00.635Z,8.20
2023-05-21T10:01:30.768Z,8.00
2023-05-21T10:04:00.344Z,7.68
2023-05-21T10:06:31.355Z,8.05
2023-05-21T10:09:05.505Z,8.15
2023-05-21T10:11:36.610Z,7.85
2023-05-21T10:14:06.703Z,8.07
2023-05-21T10:16:36.616Z,8.05
2023-05-21T10:19:06.069Z,8.77
2023-05-21T10:21:34.973Z,7.35
2023-05-21T10:24:04.412Z,8.45
2023-05-21T10:26:33.136Z,8.40
2023-05-21T10:29:02.916Z,8.60
2023-05-21T10:31:31.980Z,8.52
2023-05-21T10:34:03.754Z,8.57
2023-05-21T10:36:32.836Z,8.15
2023-05-21T10:39:02.654Z,8.25
2023-05-21T10:42:01.738Z,8.65
2023-05-21T10:44:54.735Z,8.85
2023-05-21T10:47:41.831Z,8.13
2023-05-21T10:50:31.453Z,7.65
2023-05-21T10:53:11.173Z,7.68
2023-05-21T10:56:05.289Z,8.15
2023-05-21T10:58:47.526Z,8.88
2023-05-21T11:01:19.380Z,8.68
2023-05-21T11:03:51.269Z,7.72
2023-05-21T11:06:26.146Z,8.18
2023-05-21T11:08:55.744Z,9.07
2023-05-21T11:11:49.973Z,8.70
2023-05-21T11:14:40.584Z,8.50
2023-05-21T11:17:36.028Z,8.05
2023-05-21T11:20:14.357Z,7.70
2023-05-21T11:22:42.692Z,7.43
2023-05-21T11:25:12.593Z,7.38
2023-05-21T11:27:42.150Z,8.60
2023-05-21T11:30:18.230Z,6.93
2023-05-21T11:33:10.059Z,7.82
2023-05-21T11:35:50.356Z,7.40
2023-05-21T11:38:18.820Z,7.85
2023-05-21T11:40:55.387Z,8.15
2023-05-21T11:43:23.868Z,7.75
2023-05-21T11:45:54.134Z,7.55
2023-05-21T11:48:27.982Z,7.82
2023-05-21T11:50:57.606Z,7.20
2023-05-21T11:53:26.000Z,7.75
2023-05-21T11:55:57.710Z,7.10
2023-05-21T11:58:26.617Z,7.32
2023-05-21T12:00:54.896Z,7.65
2023-05-21T12:03:27.180Z,8.20
2023-05-21T12:05:55.989Z,7.20
2023-05-21T12:08:25.672Z,7.82
2023-05-21T12:11:00.293Z,7.45
2023-05-21T12:13:29.072Z,7.85
2023-05-21T12:15:58.466Z,7.78
2023-05-21T12:18:27.484Z,7.65
2023-05-21T12:20:55.927Z,7.13
2023-05-21T12:23:27.112Z,7.53
2023-05-21T12:25:56.361Z,7.75
2023-05-21T12:28:25.189Z,7.05
2023-05-21T12:30:53.782Z,7.88
2023-05-21T12:33:25.066Z,7.70
2023-05-21T12:35:53.554Z,7.22
2023-05-21T12:38:21.843Z,7.80
2023-05-21T12:40:50.107Z,7.45
2023-05-21T12:43:19.171Z,7.00
2023-05-21T12:45:47.535Z,8.23
2023-05-21T12:48:16.702Z,7.57
2023-05-21T12:50:45.106Z,7.63
2023-05-21T12:53:13.350Z,7.90
2023-05-21T12:55:41.684Z,7.55
2023-05-21T12:58:14.377Z,7.78
2023-05-21T13:00:44.152Z,7.50
2023-05-21T13:03:12.605Z,8.15
2023-05-21T13:05:42.127Z,7.63
2023-05-21T13:08:11.364Z,7.55
2023-05-21T13:10:39.829Z,8.35
2023-05-21T13:13:08.396Z,7.35
2023-05-21T13:15:36.722Z,8.30
2023-05-21T13:18:05.167Z,7.95
2023-05-21T13:20:33.408Z,7.18
2023-05-21T13:23:03.522Z,7.68
2023-05-21T13:25:33.906Z,7.57
2023-05-21T13:28:05.184Z,7.22
2023-05-21T13:30:33.774Z,7.97
2023-05-21T13:33:02.236Z,7.32
2023-05-21T13:35:31.185Z,8.18
2023-05-21T13:38:01.841Z,7.93
2023-05-21T13:40:30.204Z,8.02
2023-05-21T13:42:58.581Z,7.60
2023-05-21T13:45:29.347Z,7.78
2023-05-21T13:47:58.009Z,7.03
2023-05-21T13:50:26.604Z,7.72
2023-05-21T13:52:54.833Z,6.90
2023-05-21T13:55:23.479Z,7.22
2023-05-21T13:57:51.738Z,6.90
2023-05-21T14:00:22.332Z,7.25
2023-05-21T14:02:51.206Z,7.57
2023-05-21T14:05:19.801Z,7.20
2023-05-21T14:07:48.543Z,6.30
2023-05-21T14:10:17.131Z,6.78
2023-05-21T14:12:46.092Z,6.85
2023-05-21T14:15:14.381Z,6.15
2023-05-21T14:17:42.797Z,7.57
2023-05-21T14:20:11.638Z,6.07
2023-05-21T14:22:39.910Z,6.47
2023-05-21T14:25:08.582Z,6.00
2023-05-21T14:27:38.229Z,6.30
2023-05-21T14:30:07.434Z,5.70
2023-05-21T14:32:35.796Z,6.22
2023-05-21T14:35:04.970Z,5.53
2023-05-21T14:37:33.376Z,5.60
2023-05-21T14:40:01.747Z,6.07
2023-05-21T14:42:30.939Z,6.57
2023-05-21T14:45:17.014Z,5.57
2023-05-21T14:47:47.857Z,5.88
2023-05-21T14:50:17.394Z,6.47
2023-05-21T14:52:46.145Z,6.50
2023-05-21T14:55:16.884Z,6.05
2023-05-21T14:57:45.599Z,5.72
2023-05-21T15:00:14.617Z,5.75
2023-05-21T15:02:42.934Z,5.18
2023-05-21T15:05:11.448Z,6.22
2023-05-21T15:07:39.814Z,6.57
2023-05-21T15:10:08.815Z,6.97
2023-05-21T15:12:38.186Z,6.20
2023-05-21T15:15:07.917Z,6.20
2023-05-21T15:17:36.450Z,6.50
2023-05-21T15:20:05.574Z,5.45
2023-05-21T15:22:37.368Z,6.10
2023-05-21T15:25:06.171Z,5.68
2023-05-21T15:27:35.187Z,6.65
2023-05-21T15:30:04.142Z,5.80
2023-05-21T15:32:32.484Z,6.32
2023-05-21T15:35:00.865Z,5.68
2023-05-21T15:37:32.187Z,6.47
2023-05-21T15:40:00.818Z,5.68
2023-05-21T15:42:31.511Z,5.60
2023-05-21T15:45:00.162Z,5.75
2023-05-21T15:47:28.491Z,6.80
2023-05-21T15:49:58.872Z,7.15
2023-05-21T15:52:27.340Z,6.32
2023-05-21T15:54:55.706Z,6.63
2023-05-21T15:57:23.944Z,6.22
2023-05-21T15:59:52.686Z,5.82
2023-05-21T16:02:20.988Z,6.57
2023-05-21T16:04:51.544Z,6.78
2023-05-21T16:07:20.016Z,5.72
2023-05-21T16:09:48.298Z,6.13
2023-05-21T16:12:16.598Z,6.20
2023-05-21T16:14:45.025Z,6.22
2023-05-21T16:17:13.368Z,6.07
2023-05-21T16:19:41.698Z,6.93
2023-05-21T16:22:10.866Z,6.65
2023-05-21T16:24:39.372Z,6.65
2023-05-21T16:27:07.623Z,7.07
2023-05-21T16:29:36.748Z,7.05
2023-05-21T16:32:06.891Z,6.88
2023-05-21T16:34:36.855Z,6.35
2023-05-21T16:37:05.664Z,6.63
2023-05-21T16:39:34.028Z,6.03
2023-05-21T16:42:02.474Z,7.45
2023-05-21T16:44:32.120Z,7.43
2023-05-21T16:47:01.999Z,7.05
2023-05-21T16:49:30.378Z,6.22
2023-05-21T16:51:58.665Z,6.22
2023-05-21T16:54:27.875Z,6.63
2023-05-21T16:56:56.721Z,6.50
2023-05-21T16:59:24.997Z,7.22
2023-05-21T17:01:53.426Z,6.53
2023-05-21T17:04:21.823Z,6.90
2023-05-21T17:06:50.068Z,6.68
2023-05-21T17:09:18.871Z,6.65
2023-05-21T17:11:47.343Z,6.10
2023-05-21T17:14:30.376Z,7.53
2023-05-21T17:17:01.986Z,6.95
2023-05-21T17:19:31.319Z,7.40
2023-05-21T17:21:59.617Z,7.70
2023-05-21T17:24:27.898Z,6.75
2023-05-21T17:26:59.470Z,7.15
2023-05-21T17:29:27.779Z,7.47
2023-05-21T17:31:56.468Z,7.95
2023-05-21T17:34:29.539Z,7.07
2023-05-21T17:36:59.238Z,7.93
2023-05-21T17:39:27.610Z,8.23
2023-05-21T17:41:57.035Z,9.55
2023-05-21T17:44:25.525Z,7.50
2023-05-21T17:46:56.436Z,7.07
2023-05-21T17:49:25.225Z,7.78
2023-05-21T17:51:54.300Z,7.50
2023-05-21T17:54:22.609Z,7.43
2023-05-21T17:56:51.023Z,7.95
2023-05-21T17:59:19.432Z,7.20
2023-05-21T18:01:47.844Z,7.00
2023-05-21T18:04:16.256Z,7.30
2023-05-21T18:06:44.614Z,7.57
2023-05-21T18:09:15.304Z,6.95
2023-05-21T18:11:46.934Z,7.40
2023-05-21T18:14:18.196Z,7.60
2023-05-21T18:16:46.600Z,8.15
2023-05-21T18:19:14.978Z,7.78
2023-05-21T18:21:43.236Z,8.20
2023-05-21T18:24:11.687Z,8.82
2023-05-21T18:26:40.084Z,7.97
2023-05-21T18:29:10.861Z,8.15
2023-05-21T18:31:39.294Z,9.05
2023-05-21T18:34:07.652Z,8.63
2023-05-21T18:36:38.919Z,7.72
2023-05-21T18:39:10.315Z,8.52
2023-05-21T18:41:39.527Z,7.90
2023-05-21T18:44:07.779Z,7.97
2023-05-21T18:46:36.269Z,8.13
2023-05-21T18:49:04.844Z,8.05
2023-05-21T18:51:33.202Z,7.72
2023-05-21T18:54:01.610Z,7.53
2023-05-21T18:56:29.912Z,7.82
2023-05-21T18:58:58.558Z,9.05
2023-05-21T19:01:27.562Z,7.82
2023-05-21T19:03:55.945Z,9.57
2023-05-21T19:06:25.715Z,7.95
2023-05-21T19:08:54.530Z,8.25
2023-05-21T19:11:23.753Z,8.43
2023-05-21T19:13:52.166Z,8.77
2023-05-21T19:16:20.555Z,8.35
2023-05-21T19:18:48.981Z,8.30
2023-05-21T19:21:17.585Z,8.55
2023-05-21T19:23:53.168Z,7.80
2023-05-21T19:26:22.898Z,8.57
2023-05-21T19:28:53.911Z,8.45
2023-05-21T19:31:26.379Z,8.95
2023-05-21T19:33:54.844Z,8.20
2023-05-21T19:36:24.678Z,8.77
2023-05-21T19:38:53.000Z,8.45
2023-05-21T19:41:22.122Z,8.77
2023-05-21T19:43:50.339Z,8.35
2023-05-21T19:46:20.286Z,8.60
2023-05-21T19:48:50.648Z,9.18
2023-05-21T19:51:19.043Z,8.38
2023-05-21T19:53:47.403Z,8.15
2023-05-21T19:56:16.059Z,8.02
2023-05-21T19:58:47.450Z,8.02
2023-05-21T20:01:18.912Z,8.48
2023-05-21T20:03:47.732Z,8.52
2023-05-21T20:06:18.989Z,8.32
2023-05-21T20:08:48.022Z,8.02
2023-05-21T20:11:16.758Z,8.20
2023-05-21T20:13:50.219Z,7.85
2023-05-21T20:16:20.006Z,8.32
2023-05-21T20:18:49.208Z,8.73
2023-05-21T20:21:18.713Z,8.85
2023-05-21T20:23:47.601Z,8.23
2023-05-21T20:26:17.100Z,8.13
2023-05-21T20:28:46.209Z,8.50
2023-05-21T20:31:14.664Z,8.20
2023-05-21T20:33:43.162Z,9.13
2023-05-21T20:36:13.365Z,8.48
2023-05-21T20:38:42.159Z,8.32
2023-05-21T20:41:10.562Z,9.20
2023-05-21T20:43:39.306Z,8.85
2023-05-21T20:46:07.905Z,8.60
2023-05-21T20:48:37.883Z,8.70
2023-05-21T20:51:06.375Z,8.15
2023-05-21T20:53:34.646Z,7.88
2023-05-21T20:56:02.904Z,8.30
2023-05-21T20:58:31.498Z,7.93
2023-05-21T21:01:01.875Z,8.20
2023-05-21T21:03:33.803Z,8.30
2023-05-21T21:06:03.104Z,7.80
2023-05-21T21:08:31.498Z,8.57
2023-05-21T21:10:59.738Z,7.85
2023-05-21T21:13:28.050Z,8.13
2023-05-21T21:15:56.309Z,8.75
2023-05-21T21:18:24.593Z,7.53
2023-05-21T21:20:53.313Z,8.57
2023-05-21T21:23:23.472Z,8.60
2023-05-21T21:25:51.998Z,8.20
2023-05-21T21:28:20.408Z,8.40
2023-05-21T21:30:48.702Z,8.10
2023-05-21T21:33:17.414Z,7.57
2023-05-21T21:35:45.842Z,8.77
2023-05-21T21:38:14.099Z,8.73
2023-05-21T21:40:42.378Z,8.50
2023-05-21T21:43:10.727Z,7.78
2023-05-21T21:45:39.025Z,8.15
2023-05-21T21:48:07.573Z,7.53
2023-05-21T21:50:36.186Z,8.93
2023-05-21T21:53:06.008Z,8.20
2023-05-21T21:55:34.275Z,8.63
2023-05-21T21:58:02.557Z,9.07
2023-05-21T22:00:30.802Z,9.00
2023-05-21T22:02:59.120Z,8.88
2023-05-21T22:05:31.346Z,8.45
2023-05-21T22:07:59.693Z,8.52
2023-05-21T22:10:27.978Z,7.95
2023-05-21T22:12:56.809Z,7.32
2023-05-21T22:15:27.521Z,6.97
2023-05-21T22:17:56.024Z,8.35
2023-05-21T22:20:29.381Z,7.18
2023-05-21T22:25:26.416Z,6.90
2023-05-21T22:27:54.726Z,8.20
2023-05-21T22:30:23.062Z,6.75
2023-05-21T22:32:51.530Z,8.82
2023-05-21T22:35:20.237Z,7.13
2023-05-21T22:37:48.923Z,7.70
2023-05-21T22:40:17.375Z,6.70
2023-05-21T22:42:47.108Z,7.57
2023-05-21T22:45:15.928Z,7.28
2023-05-21T22:47:44.187Z,8.25
2023-05-21T22:50:16.698Z,7.53
2023-05-21T22:52:44.992Z,7.13
2023-05-21T22:55:13.374Z,7.40
2023-05-21T22:57:41.735Z,7.60
2023-05-21T23:00:10.901Z,7.35
2023-05-21T23:02:57.746Z,7.55
2023-05-21T23:05:26.132Z,7.50
2023-05-21T23:07:54.405Z,6.95
2023-05-21T23:10:22.724Z,8.02
2023-05-21T23:12:51.069Z,8.07
2023-05-21T23:15:19.428Z,7.85
2023-05-21T23:17:47.859Z,7.68
2023-05-21T23:20:16.358Z,7.20
2023-05-21T23:22:45.751Z,7.22
2023-05-21T23:25:14.064Z,7.18
2023-05-21T23:27:42.395Z,8.70
2023-05-21T23:30:12.058Z,7.97
2023-05-21T23:32:40.539Z,7.97
2023-05-21T23:35:09.536Z,7.43
2023-05-21T23:37:37.729Z,7.15
2023-05-21T23:40:06.760Z,7.70
2023-05-21T23:42:35.565Z,7.05
2023-05-21T23:45:04.177Z,6.95
2023-05-21T23:47:33.402Z,7.18
2023-05-21T23:50:01.745Z,7.72
2023-05-21T23:52:30.153Z,7.25
2023-05-21T23:54:59.159Z,7.13
2023-05-21T23:57:27.353Z,6.82
2023-05-21T23:59:55.778Z,7.97
